sensor_id;sensor_type;location;lat;lon;timestamp;pressure;altitude;pressure_sealevel;temperature;humidity
29417;BME280;28421;51.030;4.006;2023-05-29T00:00:24;102187.22;;;12.67;84.00
29417;BME280;28421;51.030;4.006;2023-05-29T00:02:50;102219.41;;;12.97;83.88
29417;BME280;28421;51.030;4.006;2023-05-29T00:05:16;102242.84;;;12.96;84.34
29417;BME280;28421;51.030;4.006;2023-05-29T00:07:43;102239.69;;;13.01;83.95
29417;BME280;28421;51.030;4.006;2023-05-29T00:10:10;102245.94;;;13.01;83.56
29417;BME280;28421;51.030;4.006;2023-05-29T00:12:37;102252.19;;;13.02;84.42
29417;BME280;28421;51.030;4.006;2023-05-29T00:15:03;102243.50;;;12.90;84.06
29417;BME280;28421;51.030;4.006;2023-05-29T00:17:32;102266.31;;;12.96;84.93
29417;BME280;28421;51.030;4.006;2023-05-29T00:19:58;102242.22;;;12.84;84.37
29417;BME280;28421;51.030;4.006;2023-05-29T00:22:24;102233.91;;;12.78;84.26
29417;BME280;28421;51.030;4.006;2023-05-29T00:24:50;102249.69;;;12.73;84.75
29417;BME280;28421;51.030;4.006;2023-05-29T00:27:16;102261.41;;;12.81;84.93
29417;BME280;28421;51.030;4.006;2023-05-29T00:29:41;102246.22;;;12.80;84.27
29417;BME280;28421;51.030;4.006;2023-05-29T00:32:07;102277.56;;;12.91;84.14
29417;BME280;28421;51.030;4.006;2023-05-29T00:34:32;102257.66;;;12.74;84.64
29417;BME280;28421;51.030;4.006;2023-05-29T00:36:58;102269.28;;;12.75;85.05
29417;BME280;28421;51.030;4.006;2023-05-29T00:39:24;102265.88;;;12.73;84.64
29417;BME280;28421;51.030;4.006;2023-05-29T00:41:49;102255.63;;;12.58;84.89
29417;BME280;28421;51.030;4.006;2023-05-29T00:44:19;102265.84;;;12.55;85.29
29417;BME280;28421;51.030;4.006;2023-05-29T00:46:46;102240.38;;;12.39;85.08
29417;BME280;28421;51.030;4.006;2023-05-29T00:49:12;102263.78;;;12.49;85.09
29417;BME280;28421;51.030;4.006;2023-05-29T00:51:38;102264.28;;;12.52;84.59
29417;BME280;28421;51.030;4.006;2023-05-29T00:54:06;102277.69;;;12.44;85.08
29417;BME280;28421;51.030;4.006;2023-05-29T00:56:35;102272.72;;;12.49;84.62
29417;BME280;28421;51.030;4.006;2023-05-29T00:59:01;102278.88;;;12.59;84.29
29417;BME280;28421;51.030;4.006;2023-05-29T01:01:27;102265.19;;;12.43;83.79
29417;BME280;28421;51.030;4.006;2023-05-29T01:03:55;102288.00;;;12.58;83.76
29417;BME280;28421;51.030;4.006;2023-05-29T01:06:21;102221.72;;;12.28;83.03
29417;BME280;28421;51.030;4.006;2023-05-29T01:08:46;102225.69;;;12.24;82.85
29417;BME280;28421;51.030;4.006;2023-05-29T01:13:44;102270.66;;;12.33;83.07
29417;BME280;28421;51.030;4.006;2023-05-29T01:16:17;102295.25;;;12.48;82.51
29417;BME280;28421;51.030;4.006;2023-05-29T01:18:54;102265.84;;;12.27;82.57
29417;BME280;28421;51.030;4.006;2023-05-29T01:24:01;102279.63;;;12.24;82.08
29417;BME280;28421;51.030;4.006;2023-05-29T01:29:14;102257.16;;;11.96;80.83
29417;BME280;28421;51.030;4.006;2023-05-29T01:31:43;102269.53;;;11.89;80.58
29417;BME280;28421;51.030;4.006;2023-05-29T01:34:10;102288.91;;;12.02;80.25
29417;BME280;28421;51.030;4.006;2023-05-29T01:36:35;102265.28;;;11.86;79.46
29417;BME280;28421;51.030;4.006;2023-05-29T01:39:02;102273.06;;;11.89;79.12
29417;BME280;28421;51.030;4.006;2023-05-29T01:41:28;102275.75;;;11.80;78.66
29417;BME280;28421;51.030;4.006;2023-05-29T01:43:56;102266.53;;;11.73;78.78
29417;BME280;28421;51.030;4.006;2023-05-29T01:46:23;102278.72;;;11.77;78.51
29417;BME280;28421;51.030;4.006;2023-05-29T01:48:50;102300.28;;;11.96;78.23
29417;BME280;28421;51.030;4.006;2023-05-29T01:51:16;102297.88;;;12.03;78.36
29417;BME280;28421;51.030;4.006;2023-05-29T01:53:43;102295.47;;;11.90;77.89
29417;BME280;28421;51.030;4.006;2023-05-29T01:56:09;102285.13;;;11.85;77.33
29417;BME280;28421;51.030;4.006;2023-05-29T01:58:37;102274.78;;;11.71;77.41
29417;BME280;28421;51.030;4.006;2023-05-29T02:01:03;102267.81;;;11.68;77.05
29417;BME280;28421;51.030;4.006;2023-05-29T02:03:31;102268.13;;;11.65;76.54
29417;BME280;28421;51.030;4.006;2023-05-29T02:05:58;102273.94;;;11.61;76.02
29417;BME280;28421;51.030;4.006;2023-05-29T02:08:24;102261.34;;;11.61;75.38
29417;BME280;28421;51.030;4.006;2023-05-29T02:10:50;102268.56;;;11.51;75.84
29417;BME280;28421;51.030;4.006;2023-05-29T02:13:16;102304.84;;;11.76;75.48
29417;BME280;28421;51.030;4.006;2023-05-29T02:15:41;102275.66;;;11.52;75.37
29417;BME280;28421;51.030;4.006;2023-05-29T02:18:12;102286.16;;;11.36;75.36
29417;BME280;28421;51.030;4.006;2023-05-29T02:20:38;102273.25;;;11.39;75.23
29417;BME280;28421;51.030;4.006;2023-05-29T02:23:03;102234.44;;;11.23;75.38
29417;BME280;28421;51.030;4.006;2023-05-29T02:25:29;102269.88;;;11.37;74.89
29417;BME280;28421;51.030;4.006;2023-05-29T02:27:54;102255.69;;;11.26;74.93
29417;BME280;28421;51.030;4.006;2023-05-29T02:30:20;102265.88;;;11.32;74.71
29417;BME280;28421;51.030;4.006;2023-05-29T02:32:46;102285.44;;;11.43;74.49
29417;BME280;28421;51.030;4.006;2023-05-29T02:35:12;102267.59;;;11.23;74.72
29417;BME280;28421;51.030;4.006;2023-05-29T02:37:41;102270.97;;;11.15;74.48
29417;BME280;28421;51.030;4.006;2023-05-29T02:40:07;102272.13;;;11.13;74.45
29417;BME280;28421;51.030;4.006;2023-05-29T02:42:36;102259.78;;;11.10;74.55
29417;BME280;28421;51.030;4.006;2023-05-29T02:45:03;102307.56;;;11.37;74.49
29417;BME280;28421;51.030;4.006;2023-05-29T02:47:29;102282.03;;;11.22;74.56
29417;BME280;28421;51.030;4.006;2023-05-29T02:49:56;102313.38;;;11.33;74.41
29417;BME280;28421;51.030;4.006;2023-05-29T02:52:23;102283.31;;;11.08;74.66
29417;BME280;28421;51.030;4.006;2023-05-29T02:54:49;102313.22;;;11.25;74.73
29417;BME280;28421;51.030;4.006;2023-05-29T02:57:15;102297.91;;;11.15;74.89
29417;BME280;28421;51.030;4.006;2023-05-29T02:59:41;102317.31;;;11.19;74.65
29417;BME280;28421;51.030;4.006;2023-05-29T03:02:07;102280.75;;;10.97;74.44
29417;BME280;28421;51.030;4.006;2023-05-29T03:04:32;102293.34;;;10.87;74.78
29417;BME280;28421;51.030;4.006;2023-05-29T03:06:57;102287.41;;;10.93;74.93
29417;BME280;28421;51.030;4.006;2023-05-29T03:09:23;102295.75;;;10.90;74.56
29417;BME280;28421;51.030;4.006;2023-05-29T03:11:49;102275.47;;;10.66;74.50
29417;BME280;28421;51.030;4.006;2023-05-29T03:14:16;102281.09;;;10.63;74.61
29417;BME280;28421;51.030;4.006;2023-05-29T03:16:42;102279.56;;;10.70;74.84
29417;BME280;28421;51.030;4.006;2023-05-29T03:19:09;102294.44;;;10.75;74.42
29417;BME280;28421;51.030;4.006;2023-05-29T03:21:34;102292.72;;;10.74;74.20
29417;BME280;28421;51.030;4.006;2023-05-29T03:24:01;102276.00;;;10.60;74.14
29417;BME280;28421;51.030;4.006;2023-05-29T03:26:28;102318.78;;;10.73;74.17
29417;BME280;28421;51.030;4.006;2023-05-29T03:28:54;102282.09;;;10.62;73.95
29417;BME280;28421;51.030;4.006;2023-05-29T03:31:19;102304.91;;;10.68;74.42
29417;BME280;28421;51.030;4.006;2023-05-29T03:33:46;102257.56;;;10.46;74.30
29417;BME280;28421;51.030;4.006;2023-05-29T03:36:26;102301.38;;;10.67;74.09
29417;BME280;28421;51.030;4.006;2023-05-29T03:38:52;102283.03;;;10.52;73.97
29417;BME280;28421;51.030;4.006;2023-05-29T03:41:18;102295.97;;;10.67;73.76
29417;BME280;28421;51.030;4.006;2023-05-29T03:43:44;102296.13;;;10.66;73.52
29417;BME280;28421;51.030;4.006;2023-05-29T03:46:09;102298.66;;;10.67;73.67
29417;BME280;28421;51.030;4.006;2023-05-29T03:48:35;102296.66;;;10.60;73.64
29417;BME280;28421;51.030;4.006;2023-05-29T03:51:01;102295.91;;;10.48;73.62
29417;BME280;28421;51.030;4.006;2023-05-29T03:53:34;102303.97;;;10.48;73.68
29417;BME280;28421;51.030;4.006;2023-05-29T03:55:59;102322.84;;;10.58;73.30
29417;BME280;28421;51.030;4.006;2023-05-29T03:58:25;102317.16;;;10.51;73.68
29417;BME280;28421;51.030;4.006;2023-05-29T04:00:52;102331.78;;;10.58;73.31
29417;BME280;28421;51.030;4.006;2023-05-29T04:03:19;102317.84;;;10.53;73.78
29417;BME280;28421;51.030;4.006;2023-05-29T04:05:45;102316.44;;;10.49;73.43
29417;BME280;28421;51.030;4.006;2023-05-29T04:08:11;102322.34;;;10.33;74.05
29417;BME280;28421;51.030;4.006;2023-05-29T04:10:39;102339.59;;;10.40;74.08
29417;BME280;28421;51.030;4.006;2023-05-29T04:13:04;102340.31;;;10.33;74.41
29417;BME280;28421;51.030;4.006;2023-05-29T04:15:31;102308.34;;;10.18;74.59
29417;BME280;28421;51.030;4.006;2023-05-29T04:17:59;102365.75;;;10.59;74.48
29417;BME280;28421;51.030;4.006;2023-05-29T04:20:24;102363.22;;;10.58;74.73
29417;BME280;28421;51.030;4.006;2023-05-29T04:22:50;102369.59;;;10.66;74.54
29417;BME280;28421;51.030;4.006;2023-05-29T04:25:16;102316.00;;;10.44;74.65
29417;BME280;28421;51.030;4.006;2023-05-29T04:27:44;102344.66;;;10.64;74.23
29417;BME280;28421;51.030;4.006;2023-05-29T04:30:15;102339.13;;;10.56;74.40
29417;BME280;28421;51.030;4.006;2023-05-29T04:32:44;102317.84;;;10.53;74.16
29417;BME280;28421;51.030;4.006;2023-05-29T04:35:11;102366.63;;;10.69;74.29
29417;BME280;28421;51.030;4.006;2023-05-29T04:37:41;102352.16;;;10.61;74.73
29417;BME280;28421;51.030;4.006;2023-05-29T04:40:09;102369.78;;;10.75;74.40
29417;BME280;28421;51.030;4.006;2023-05-29T04:42:38;102339.69;;;10.60;74.39
29417;BME280;28421;51.030;4.006;2023-05-29T04:45:07;102330.88;;;10.48;74.27
29417;BME280;28421;51.030;4.006;2023-05-29T04:47:36;102348.03;;;10.57;74.50
29417;BME280;28421;51.030;4.006;2023-05-29T04:50:11;102371.03;;;10.70;74.92
29417;BME280;28421;51.030;4.006;2023-05-29T04:52:37;102399.19;;;10.66;75.43
29417;BME280;28421;51.030;4.006;2023-05-29T04:55:05;102384.31;;;10.62;74.48
29417;BME280;28421;51.030;4.006;2023-05-29T04:57:31;102377.38;;;10.69;74.60
29417;BME280;28421;51.030;4.006;2023-05-29T04:59:57;102391.53;;;10.62;74.70
29417;BME280;28421;51.030;4.006;2023-05-29T05:02:22;102374.75;;;10.49;74.61
29417;BME280;28421;51.030;4.006;2023-05-29T05:04:48;102348.69;;;10.49;75.04
29417;BME280;28421;51.030;4.006;2023-05-29T05:07:13;102363.63;;;10.63;74.76
29417;BME280;28421;51.030;4.006;2023-05-29T05:09:42;102416.47;;;11.04;74.37
29417;BME280;28421;51.030;4.006;2023-05-29T05:12:10;102379.13;;;10.80;74.04
29417;BME280;28421;51.030;4.006;2023-05-29T05:14:37;102413.38;;;11.09;73.95
29417;BME280;28421;51.030;4.006;2023-05-29T05:17:02;102402.13;;;10.94;74.34
29417;BME280;28421;51.030;4.006;2023-05-29T05:19:28;102379.09;;;10.70;74.43
29417;BME280;28421;51.030;4.006;2023-05-29T05:21:53;102393.69;;;10.78;74.68
29417;BME280;28421;51.030;4.006;2023-05-29T05:24:21;102380.84;;;10.81;74.72
29417;BME280;28421;51.030;4.006;2023-05-29T05:26:46;102384.53;;;10.90;74.71
29417;BME280;28421;51.030;4.006;2023-05-29T05:29:13;102372.09;;;10.89;74.17
29417;BME280;28421;51.030;4.006;2023-05-29T05:31:39;102373.31;;;10.75;74.40
29417;BME280;28421;51.030;4.006;2023-05-29T05:34:04;102392.38;;;11.03;74.42
29417;BME280;28421;51.030;4.006;2023-05-29T05:36:30;102416.66;;;11.22;74.08
29417;BME280;28421;51.030;4.006;2023-05-29T05:39:02;102424.91;;;11.30;73.70
29417;BME280;28421;51.030;4.006;2023-05-29T05:41:28;102409.69;;;11.19;73.81
29417;BME280;28421;51.030;4.006;2023-05-29T05:43:54;102408.28;;;11.15;73.50
29417;BME280;28421;51.030;4.006;2023-05-29T05:46:28;102433.16;;;11.48;72.71
29417;BME280;28421;51.030;4.006;2023-05-29T05:48:54;102439.25;;;11.50;72.35
29417;BME280;28421;51.030;4.006;2023-05-29T05:51:23;102401.53;;;11.40;72.21
29417;BME280;28421;51.030;4.006;2023-05-29T05:53:50;102405.22;;;11.39;71.24
29417;BME280;28421;51.030;4.006;2023-05-29T05:56:16;102431.03;;;11.42;70.71
29417;BME280;28421;51.030;4.006;2023-05-29T05:58:41;102423.53;;;11.45;70.41
29417;BME280;28421;51.030;4.006;2023-05-29T06:01:10;102409.91;;;11.47;70.32
29417;BME280;28421;51.030;4.006;2023-05-29T06:03:37;102433.19;;;11.67;70.16
29417;BME280;28421;51.030;4.006;2023-05-29T06:06:08;102397.16;;;11.49;70.00
29417;BME280;28421;51.030;4.006;2023-05-29T06:08:35;102419.72;;;11.67;70.33
29417;BME280;28421;51.030;4.006;2023-05-29T06:11:00;102420.13;;;11.63;69.40
29417;BME280;28421;51.030;4.006;2023-05-29T06:13:27;102419.44;;;11.70;69.56
29417;BME280;28421;51.030;4.006;2023-05-29T06:15:58;102426.81;;;11.78;69.06
29417;BME280;28421;51.030;4.006;2023-05-29T06:18:23;102410.34;;;11.72;67.84
29417;BME280;28421;51.030;4.006;2023-05-29T06:20:49;102407.66;;;11.72;67.38
29417;BME280;28421;51.030;4.006;2023-05-29T06:23:15;102426.41;;;11.92;68.06
29417;BME280;28421;51.030;4.006;2023-05-29T06:25:41;102418.16;;;11.94;67.30
29417;BME280;28421;51.030;4.006;2023-05-29T06:28:07;102436.34;;;12.11;67.23
29417;BME280;28421;51.030;4.006;2023-05-29T06:30:32;102402.16;;;11.92;66.79
29417;BME280;28421;51.030;4.006;2023-05-29T06:32:58;102416.06;;;12.07;66.76
29417;BME280;28421;51.030;4.006;2023-05-29T06:35:29;102413.78;;;12.12;66.25
29417;BME280;28421;51.030;4.006;2023-05-29T06:37:54;102423.81;;;12.30;66.33
29417;BME280;28421;51.030;4.006;2023-05-29T06:40:20;102427.50;;;12.38;66.43
29417;BME280;28421;51.030;4.006;2023-05-29T06:42:45;102421.41;;;12.36;65.95
29417;BME280;28421;51.030;4.006;2023-05-29T06:45:14;102437.28;;;12.49;65.40
29417;BME280;28421;51.030;4.006;2023-05-29T06:47:41;102418.25;;;12.41;65.71
29417;BME280;28421;51.030;4.006;2023-05-29T06:50:07;102404.91;;;12.39;65.93
29417;BME280;28421;51.030;4.006;2023-05-29T06:52:33;102456.63;;;12.82;66.46
29417;BME280;28421;51.030;4.006;2023-05-29T06:55:17;102446.81;;;12.81;65.24
29417;BME280;28421;51.030;4.006;2023-05-29T06:57:43;102413.63;;;12.71;65.38
29417;BME280;28421;51.030;4.006;2023-05-29T07:00:11;102434.53;;;12.96;65.56
29417;BME280;28421;51.030;4.006;2023-05-29T07:02:41;102430.16;;;12.85;64.69
29417;BME280;28421;51.030;4.006;2023-05-29T07:05:07;102438.66;;;13.00;65.04
29417;BME280;28421;51.030;4.006;2023-05-29T07:07:34;102440.56;;;13.17;65.09
29417;BME280;28421;51.030;4.006;2023-05-29T07:10:01;102446.63;;;12.92;64.28
29417;BME280;28421;51.030;4.006;2023-05-29T07:12:26;102450.16;;;13.02;64.43
29417;BME280;28421;51.030;4.006;2023-05-29T07:14:52;102422.16;;;13.03;64.92
29417;BME280;28421;51.030;4.006;2023-05-29T07:17:18;102443.38;;;13.26;64.92
29417;BME280;28421;51.030;4.006;2023-05-29T07:19:43;102457.25;;;13.58;64.89
29417;BME280;28421;51.030;4.006;2023-05-29T07:22:09;102444.28;;;13.44;63.01
29417;BME280;28421;51.030;4.006;2023-05-29T07:24:36;102422.97;;;13.41;62.35
29417;BME280;28421;51.030;4.006;2023-05-29T07:27:03;102414.66;;;13.52;62.17
29417;BME280;28421;51.030;4.006;2023-05-29T07:29:29;102431.97;;;13.77;62.30
29417;BME280;28421;51.030;4.006;2023-05-29T07:31:55;102401.91;;;13.62;61.79
29417;BME280;28421;51.030;4.006;2023-05-29T07:34:22;102450.47;;;13.72;60.75
29417;BME280;28421;51.030;4.006;2023-05-29T07:37:03;102417.34;;;13.88;60.71
29417;BME280;28421;51.030;4.006;2023-05-29T07:39:32;102454.25;;;14.15;60.76
29417;BME280;28421;51.030;4.006;2023-05-29T07:42:02;102467.31;;;14.20;60.86
29417;BME280;28421;51.030;4.006;2023-05-29T07:44:28;102437.53;;;13.93;59.82
29417;BME280;28421;51.030;4.006;2023-05-29T07:46:54;102417.78;;;14.01;60.17
29417;BME280;28421;51.030;4.006;2023-05-29T07:49:31;102450.84;;;14.31;59.62
29417;BME280;28421;51.030;4.006;2023-05-29T07:51:57;102434.34;;;14.42;60.49
29417;BME280;28421;51.030;4.006;2023-05-29T07:54:23;102440.09;;;14.21;58.74
29417;BME280;28421;51.030;4.006;2023-05-29T07:56:49;102435.63;;;14.12;58.97
29417;BME280;28421;51.030;4.006;2023-05-29T07:59:17;102445.53;;;14.47;59.62
29417;BME280;28421;51.030;4.006;2023-05-29T08:01:43;102432.28;;;14.36;58.84
29417;BME280;28421;51.030;4.006;2023-05-29T08:04:22;102405.84;;;14.30;58.26
29417;BME280;28421;51.030;4.006;2023-05-29T08:06:49;102442.97;;;14.63;58.25
29417;BME280;28421;51.030;4.006;2023-05-29T08:09:14;102460.53;;;14.59;57.73
29417;BME280;28421;51.030;4.006;2023-05-29T08:11:40;102440.69;;;14.77;57.64
29417;BME280;28421;51.030;4.006;2023-05-29T08:14:05;102426.03;;;14.61;57.36
29417;BME280;28421;51.030;4.006;2023-05-29T08:16:31;102397.81;;;14.72;57.11
29417;BME280;28421;51.030;4.006;2023-05-29T08:18:57;102469.59;;;14.76;56.48
29417;BME280;28421;51.030;4.006;2023-05-29T08:21:22;102417.53;;;14.82;57.76
29417;BME280;28421;51.030;4.006;2023-05-29T08:23:48;102410.41;;;14.55;55.46
29417;BME280;28421;51.030;4.006;2023-05-29T08:26:13;102443.88;;;15.06;55.62
29417;BME280;28421;51.030;4.006;2023-05-29T08:28:39;102422.91;;;15.16;55.34
29417;BME280;28421;51.030;4.006;2023-05-29T08:31:04;102438.63;;;15.13;55.36
29417;BME280;28421;51.030;4.006;2023-05-29T08:33:30;102437.00;;;15.28;55.11
29417;BME280;28421;51.030;4.006;2023-05-29T08:35:58;102427.66;;;15.14;54.10
29417;BME280;28421;51.030;4.006;2023-05-29T08:38:24;102442.81;;;15.41;54.91
29417;BME280;28421;51.030;4.006;2023-05-29T08:40:51;102423.78;;;15.25;53.10
29417;BME280;28421;51.030;4.006;2023-05-29T08:43:21;102417.06;;;15.46;54.34
29417;BME280;28421;51.030;4.006;2023-05-29T08:45:49;102444.44;;;15.69;53.91
29417;BME280;28421;51.030;4.006;2023-05-29T08:48:18;102454.97;;;15.88;53.38
29417;BME280;28421;51.030;4.006;2023-05-29T08:50:47;102435.00;;;16.05;53.91
29417;BME280;28421;51.030;4.006;2023-05-29T08:53:13;102487.41;;;16.22;53.53
29417;BME280;28421;51.030;4.006;2023-05-29T08:55:39;102421.06;;;15.68;52.10
29417;BME280;28421;51.030;4.006;2023-05-29T08:58:05;102422.38;;;15.55;52.48
29417;BME280;28421;51.030;4.006;2023-05-29T09:00:31;102441.25;;;15.89;52.39
29417;BME280;28421;51.030;4.006;2023-05-29T09:02:57;102487.53;;;16.04;51.93
29417;BME280;28421;51.030;4.006;2023-05-29T09:05:24;102471.25;;;16.29;52.32
29417;BME280;28421;51.030;4.006;2023-05-29T09:07:52;102461.44;;;16.28;51.40
29417;BME280;28421;51.030;4.006;2023-05-29T09:10:18;102481.94;;;16.63;51.46
29417;BME280;28421;51.030;4.006;2023-05-29T09:12:44;102495.81;;;16.93;50.64
29417;BME280;28421;51.030;4.006;2023-05-29T09:15:17;102444.63;;;16.40;50.78
29417;BME280;28421;51.030;4.006;2023-05-29T09:17:49;102508.75;;;16.74;50.58
29417;BME280;28421;51.030;4.006;2023-05-29T09:20:15;102494.63;;;16.87;51.25
29417;BME280;28421;51.030;4.006;2023-05-29T09:23:08;102499.22;;;16.95;50.22
29417;BME280;28421;51.030;4.006;2023-05-29T09:25:39;102468.63;;;17.01;50.78
29417;BME280;28421;51.030;4.006;2023-05-29T09:28:08;102498.31;;;17.50;50.81
29417;BME280;28421;51.030;4.006;2023-05-29T09:30:40;102499.72;;;17.37;48.59
29417;BME280;28421;51.030;4.006;2023-05-29T09:33:07;102496.56;;;17.26;49.04
29417;BME280;28421;51.030;4.006;2023-05-29T09:35:38;102479.66;;;16.99;50.86
29417;BME280;28421;51.030;4.006;2023-05-29T09:38:05;102447.72;;;17.09;49.95
29417;BME280;28421;51.030;4.006;2023-05-29T09:40:38;102442.59;;;17.14;48.99
29417;BME280;28421;51.030;4.006;2023-05-29T09:43:05;102489.53;;;17.71;48.51
29417;BME280;28421;51.030;4.006;2023-05-29T09:45:36;102440.16;;;17.59;48.88
29417;BME280;28421;51.030;4.006;2023-05-29T09:48:02;102449.41;;;17.73;47.81
29417;BME280;28421;51.030;4.006;2023-05-29T09:50:28;102465.81;;;17.56;47.84
29417;BME280;28421;51.030;4.006;2023-05-29T09:52:56;102459.13;;;17.67;47.70
29417;BME280;28421;51.030;4.006;2023-05-29T09:55:23;102471.69;;;17.68;47.64
29417;BME280;28421;51.030;4.006;2023-05-29T09:57:53;102482.25;;;17.32;48.32
29417;BME280;28421;51.030;4.006;2023-05-29T10:00:18;102464.75;;;17.65;48.09
29417;BME280;28421;51.030;4.006;2023-05-29T10:02:45;102459.19;;;17.59;48.25
29417;BME280;28421;51.030;4.006;2023-05-29T10:05:10;102466.75;;;17.72;47.39
29417;BME280;28421;51.030;4.006;2023-05-29T10:07:39;102492.22;;;17.79;47.72
29417;BME280;28421;51.030;4.006;2023-05-29T10:10:09;102485.53;;;17.58;47.66
29417;BME280;28421;51.030;4.006;2023-05-29T10:12:38;102471.75;;;17.91;47.33
29417;BME280;28421;51.030;4.006;2023-05-29T10:15:14;102459.50;;;17.25;47.25
29417;BME280;28421;51.030;4.006;2023-05-29T10:17:52;102448.81;;;17.62;47.98
29417;BME280;28421;51.030;4.006;2023-05-29T10:20:22;102452.69;;;17.91;48.28
29417;BME280;28421;51.030;4.006;2023-05-29T10:22:51;102437.94;;;17.85;48.33
29417;BME280;28421;51.030;4.006;2023-05-29T10:25:20;102476.84;;;18.17;47.61
29417;BME280;28421;51.030;4.006;2023-05-29T10:27:47;102473.00;;;18.03;47.21
29417;BME280;28421;51.030;4.006;2023-05-29T10:30:36;102444.09;;;18.02;48.12
29417;BME280;28421;51.030;4.006;2023-05-29T10:35:46;102435.53;;;18.28;47.89
29417;BME280;28421;51.030;4.006;2023-05-29T10:38:14;102488.81;;;18.98;47.86
29417;BME280;28421;51.030;4.006;2023-05-29T10:40:42;102481.59;;;19.05;47.80
29417;BME280;28421;51.030;4.006;2023-05-29T10:43:08;102480.56;;;18.77;47.34
29417;BME280;28421;51.030;4.006;2023-05-29T10:45:48;102497.56;;;18.94;47.00
29417;BME280;28421;51.030;4.006;2023-05-29T10:50:43;102483.56;;;19.26;46.48
29417;BME280;28421;51.030;4.006;2023-05-29T10:53:09;102421.53;;;18.99;45.95
29417;BME280;28421;51.030;4.006;2023-05-29T10:55:37;102473.13;;;19.15;45.29
29417;BME280;28421;51.030;4.006;2023-05-29T10:58:12;102467.28;;;19.03;46.92
29417;BME280;28421;51.030;4.006;2023-05-29T11:00:42;102472.91;;;19.31;46.46
29417;BME280;28421;51.030;4.006;2023-05-29T11:03:11;102475.06;;;19.36;46.73
29417;BME280;28421;51.030;4.006;2023-05-29T11:08:33;102472.22;;;19.08;44.93
29417;BME280;28421;51.030;4.006;2023-05-29T11:11:03;102438.91;;;19.12;45.85
29417;BME280;28421;51.030;4.006;2023-05-29T11:13:36;102434.41;;;18.90;46.33
29417;BME280;28421;51.030;4.006;2023-05-29T11:18:52;102445.84;;;19.30;46.07
29417;BME280;28421;51.030;4.006;2023-05-29T11:21:33;102457.44;;;19.68;46.60
29417;BME280;28421;51.030;4.006;2023-05-29T11:24:00;102439.13;;;19.32;44.77
29417;BME280;28421;51.030;4.006;2023-05-29T11:26:33;102437.22;;;19.48;46.00
29417;BME280;28421;51.030;4.006;2023-05-29T11:29:02;102417.22;;;19.04;44.68
29417;BME280;28421;51.030;4.006;2023-05-29T11:31:32;102415.75;;;19.23;45.48
29417;BME280;28421;51.030;4.006;2023-05-29T11:33:59;102455.88;;;19.80;45.35
29417;BME280;28421;51.030;4.006;2023-05-29T11:36:26;102452.06;;;19.75;44.45
29417;BME280;28421;51.030;4.006;2023-05-29T11:38:53;102457.66;;;19.88;44.52
29417;BME280;28421;51.030;4.006;2023-05-29T11:41:19;102404.59;;;19.03;43.21
29417;BME280;28421;51.030;4.006;2023-05-29T11:44:02;102450.19;;;19.24;45.32
29417;BME280;28421;51.030;4.006;2023-05-29T11:46:28;102435.25;;;19.20;43.77
29417;BME280;28421;51.030;4.006;2023-05-29T11:48:58;102424.25;;;18.99;43.90
29417;BME280;28421;51.030;4.006;2023-05-29T11:51:24;102452.34;;;19.65;45.65
29417;BME280;28421;51.030;4.006;2023-05-29T11:53:50;102415.59;;;20.04;45.21
29417;BME280;28421;51.030;4.006;2023-05-29T11:56:18;102405.69;;;20.24;45.46
29417;BME280;28421;51.030;4.006;2023-05-29T11:58:46;102397.34;;;19.83;43.01
29417;BME280;28421;51.030;4.006;2023-05-29T12:01:16;102440.34;;;19.45;44.81
29417;BME280;28421;51.030;4.006;2023-05-29T12:03:42;102425.59;;;19.39;44.38
29417;BME280;28421;51.030;4.006;2023-05-29T12:06:11;102423.47;;;19.71;44.99
29417;BME280;28421;51.030;4.006;2023-05-29T12:08:38;102443.44;;;18.91;45.03
29417;BME280;28421;51.030;4.006;2023-05-29T12:11:04;102455.84;;;19.59;45.76
29417;BME280;28421;51.030;4.006;2023-05-29T12:13:29;102420.41;;;19.80;43.57
29417;BME280;28421;51.030;4.006;2023-05-29T12:16:00;102436.38;;;20.05;43.75
29417;BME280;28421;51.030;4.006;2023-05-29T12:18:28;102421.94;;;20.11;44.98
29417;BME280;28421;51.030;4.006;2023-05-29T12:20:57;102387.72;;;20.15;43.59
29417;BME280;28421;51.030;4.006;2023-05-29T12:23:24;102403.97;;;19.95;43.69
29417;BME280;28421;51.030;4.006;2023-05-29T12:25:51;102399.22;;;19.61;43.65
29417;BME280;28421;51.030;4.006;2023-05-29T12:28:17;102402.09;;;19.74;44.52
29417;BME280;28421;51.030;4.006;2023-05-29T12:30:46;102393.28;;;20.00;43.78
29417;BME280;28421;51.030;4.006;2023-05-29T12:33:32;102426.22;;;20.70;43.52
29417;BME280;28421;51.030;4.006;2023-05-29T12:36:05;102431.44;;;21.06;43.71
29417;BME280;28421;51.030;4.006;2023-05-29T12:38:32;102411.25;;;20.66;41.39
29417;BME280;28421;51.030;4.006;2023-05-29T12:40:57;102415.06;;;20.71;43.21
29417;BME280;28421;51.030;4.006;2023-05-29T12:43:23;102424.50;;;20.41;43.25
29417;BME280;28421;51.030;4.006;2023-05-29T12:45:54;102392.03;;;20.03;43.97
29417;BME280;28421;51.030;4.006;2023-05-29T12:48:26;102443.56;;;20.34;43.22
29417;BME280;28421;51.030;4.006;2023-05-29T12:50:52;102401.03;;;19.97;44.16
29417;BME280;28421;51.030;4.006;2023-05-29T12:53:18;102405.78;;;19.88;43.49
29417;BME280;28421;51.030;4.006;2023-05-29T12:55:46;102427.06;;;20.21;42.44
29417;BME280;28421;51.030;4.006;2023-05-29T12:58:13;102397.63;;;19.95;42.45
29417;BME280;28421;51.030;4.006;2023-05-29T13:00:40;102410.78;;;19.48;42.45
29417;BME280;28421;51.030;4.006;2023-05-29T13:03:07;102433.16;;;20.23;44.34
29417;BME280;28421;51.030;4.006;2023-05-29T13:05:33;102415.25;;;20.42;43.85
29417;BME280;28421;51.030;4.006;2023-05-29T13:07:59;102450.06;;;20.54;43.33
29417;BME280;28421;51.030;4.006;2023-05-29T13:10:26;102402.84;;;20.67;42.49